createdAt,value
2017-08-14T00:01:53.940Z,2.30
2017-08-14T00:04:21.731Z,2.00
2017-08-14T00:06:49.465Z,2.10
2017-08-14T00:09:17.215Z,1.33
2017-08-14T00:11:45.164Z,1.83
2017-08-14T00:14:12.880Z,2.00
2017-08-14T00:16:40.620Z,2.00
2017-08-14T00:19:09.431Z,2.27
2017-08-14T00:21:37.199Z,2.00
2017-08-14T00:24:05.011Z,2.47
2017-08-14T00:26:34.201Z,2.00
2017-08-14T00:29:01.974Z,1.73
2017-08-14T00:31:29.690Z,2.20
2017-08-14T00:33:58.452Z,1.37
2017-08-14T00:36:26.262Z,2.00
2017-08-14T00:38:53.958Z,1.57
2017-08-14T00:41:21.660Z,1.90
2017-08-14T00:43:49.436Z,2.20
2017-08-14T00:46:17.187Z,1.67
2017-08-14T00:48:44.892Z,1.70
2017-08-14T00:51:12.669Z,1.73
2017-08-14T00:53:40.410Z,1.67
2017-08-14T00:56:08.139Z,1.73
2017-08-14T00:58:35.892Z,1.87
2017-08-14T01:01:03.598Z,1.70
2017-08-14T01:03:31.395Z,1.50
2017-08-14T01:05:59.072Z,1.60
2017-08-14T01:08:26.789Z,1.90
2017-08-14T01:10:54.545Z,1.63
2017-08-14T01:13:22.255Z,1.73
2017-08-14T01:15:49.967Z,1.30
2017-08-14T01:18:18.863Z,2.00
2017-08-14T01:20:46.685Z,1.90
2017-08-14T01:23:14.360Z,2.40
2017-08-14T01:25:42.054Z,2.30
2017-08-14T01:28:09.839Z,2.10
2017-08-14T01:30:37.605Z,3.77
2017-08-14T01:33:05.346Z,1.40
2017-08-14T01:35:33.034Z,1.97
2017-08-14T01:38:00.779Z,2.03
2017-08-14T01:40:28.529Z,1.80
2017-08-14T01:42:56.235Z,1.70
2017-08-14T01:45:24.025Z,2.20
2017-08-14T01:47:51.734Z,1.97
2017-08-14T01:50:19.497Z,2.03
2017-08-14T01:52:48.323Z,2.43
2017-08-14T01:55:16.024Z,1.50
2017-08-14T01:57:43.782Z,2.37
2017-08-14T02:00:11.478Z,1.57
2017-08-14T02:02:39.251Z,1.40
2017-08-14T02:05:08.071Z,1.63
2017-08-14T02:07:35.780Z,2.67
2017-08-14T02:10:03.526Z,1.80
2017-08-14T02:12:31.194Z,1.80
2017-08-14T02:14:58.963Z,2.10
2017-08-14T02:17:26.657Z,1.40
2017-08-14T02:19:54.384Z,1.80
2017-08-14T02:22:22.121Z,1.47
2017-08-14T02:24:49.838Z,1.60
2017-08-14T02:27:17.514Z,1.57
2017-08-14T02:29:45.244Z,1.60
2017-08-14T02:32:12.963Z,1.53
2017-08-14T02:34:40.670Z,1.90
2017-08-14T02:37:08.466Z,1.63
2017-08-14T02:39:36.162Z,2.23
2017-08-14T02:42:03.850Z,1.80
2017-08-14T02:44:31.625Z,1.30
2017-08-14T02:46:59.380Z,1.83
2017-08-14T02:49:27.053Z,1.40
2017-08-14T02:51:54.807Z,2.20
2017-08-14T02:54:22.571Z,1.77
2017-08-14T02:56:50.374Z,1.67
2017-08-14T02:59:18.104Z,1.97
2017-08-14T03:01:45.813Z,1.40
2017-08-14T03:04:13.609Z,1.70
2017-08-14T03:06:41.299Z,1.50
2017-08-14T03:09:09.070Z,1.60
2017-08-14T03:11:36.796Z,1.50
2017-08-14T03:14:04.498Z,1.80
2017-08-14T03:16:32.283Z,1.47
2017-08-14T03:18:59.993Z,1.30
2017-08-14T03:21:27.721Z,1.53
2017-08-14T03:23:55.480Z,1.63
2017-08-14T03:26:23.163Z,2.77
2017-08-14T03:28:50.851Z,1.50
2017-08-14T03:31:18.609Z,2.00
2017-08-14T03:33:46.334Z,1.53
2017-08-14T03:36:14.142Z,1.63
2017-08-14T03:38:41.839Z,2.10
2017-08-14T03:41:09.541Z,1.60
2017-08-14T03:43:37.267Z,1.40
2017-08-14T03:46:05.001Z,1.70
2017-08-14T03:48:32.765Z,1.60
2017-08-14T03:51:01.582Z,1.47
2017-08-14T03:53:29.317Z,1.07
2017-08-14T03:55:57.018Z,1.83
2017-08-14T03:58:24.780Z,2.30
2017-08-14T04:00:52.619Z,2.33
2017-08-14T04:03:20.321Z,1.63
2017-08-14T04:05:48.066Z,1.47
2017-08-14T04:08:15.830Z,1.63
2017-08-14T04:10:43.651Z,1.53
2017-08-14T04:13:11.348Z,1.43
2017-08-14T04:15:39.119Z,1.13
2017-08-14T04:18:06.900Z,1.90
2017-08-14T04:20:34.586Z,1.43
2017-08-14T04:23:02.265Z,1.73
2017-08-14T04:25:30.011Z,1.70
2017-08-14T04:27:57.805Z,2.30
2017-08-14T04:30:25.524Z,2.00
2017-08-14T04:32:53.253Z,2.27
2017-08-14T04:35:21.017Z,2.00
2017-08-14T04:37:48.731Z,2.70
2017-08-14T04:40:16.431Z,2.83
2017-08-14T04:42:44.196Z,3.50
2017-08-14T04:45:11.919Z,3.70
2017-08-14T04:47:40.632Z,3.37
2017-08-14T04:50:08.346Z,3.20
2017-08-14T04:52:36.124Z,2.73
2017-08-14T04:55:03.918Z,3.67
2017-08-14T04:57:31.638Z,3.57
2017-08-14T04:59:59.326Z,3.37
2017-08-14T05:02:27.110Z,3.90
2017-08-14T05:04:54.836Z,3.03
2017-08-14T05:07:22.612Z,3.77
2017-08-14T05:09:50.304Z,3.30
2017-08-14T05:12:18.026Z,3.33
2017-08-14T05:14:45.735Z,4.33
2017-08-14T05:17:14.088Z,3.30
2017-08-14T05:19:41.851Z,2.87
2017-08-14T05:22:09.641Z,3.57
2017-08-14T05:24:37.428Z,3.13
2017-08-14T05:27:05.223Z,3.70
2017-08-14T05:29:32.993Z,3.67
2017-08-14T05:32:00.720Z,3.20
2017-08-14T05:34:28.425Z,3.10
2017-08-14T05:36:56.160Z,3.20
2017-08-14T05:39:23.992Z,2.83
2017-08-14T05:41:51.698Z,3.30
2017-08-14T05:44:19.434Z,3.37
2017-08-14T05:46:47.106Z,3.13
2017-08-14T05:49:16.198Z,3.47
2017-08-14T05:51:44.849Z,3.30
2017-08-14T05:54:12.555Z,2.80
2017-08-14T05:56:40.279Z,2.77
2017-08-14T05:59:08.045Z,2.87
2017-08-14T06:01:35.812Z,3.17
2017-08-14T06:04:03.507Z,3.77
2017-08-14T06:06:31.270Z,3.27
2017-08-14T06:08:59.054Z,3.33
2017-08-14T06:11:26.807Z,3.30
2017-08-14T06:13:54.585Z,3.30
2017-08-14T06:16:25.100Z,4.50
2017-08-14T06:18:52.825Z,3.63
2017-08-14T06:21:20.615Z,3.53
2017-08-14T06:23:49.286Z,3.13
2017-08-14T06:26:17.016Z,4.00
2017-08-14T06:28:46.012Z,2.93
2017-08-14T06:31:13.706Z,3.43
2017-08-14T06:33:41.499Z,3.30
2017-08-14T06:36:09.518Z,3.33
2017-08-14T06:38:37.269Z,3.30
2017-08-14T06:41:05.010Z,3.13
2017-08-14T06:43:33.703Z,3.83
2017-08-14T06:46:01.446Z,2.70
2017-08-14T06:48:29.182Z,3.70
2017-08-14T06:50:57.862Z,3.70
2017-08-14T06:53:25.729Z,3.40
2017-08-14T06:55:53.459Z,3.80
2017-08-14T06:58:21.242Z,4.07
2017-08-14T07:00:49.047Z,3.63
2017-08-14T07:03:17.500Z,4.77
2017-08-14T07:05:45.957Z,4.03
2017-08-14T07:08:13.729Z,3.50
2017-08-14T07:10:41.460Z,3.73
2017-08-14T07:13:10.219Z,4.70
2017-08-14T07:15:37.991Z,3.00
2017-08-14T07:18:05.803Z,3.70
2017-08-14T07:20:33.548Z,3.60
2017-08-14T07:23:01.240Z,3.70
2017-08-14T07:25:28.997Z,3.27
2017-08-14T07:27:56.725Z,3.40
2017-08-14T07:30:24.491Z,3.63
2017-08-14T07:32:52.277Z,4.30
2017-08-14T07:35:19.979Z,3.27
2017-08-14T07:37:47.720Z,3.67
2017-08-14T07:40:15.480Z,3.43
2017-08-14T07:42:43.223Z,3.27
2017-08-14T07:45:11.081Z,3.50
2017-08-14T07:47:38.835Z,3.80
2017-08-14T07:50:06.624Z,3.07
2017-08-14T07:52:35.154Z,3.00
2017-08-14T07:55:02.947Z,3.00
2017-08-14T07:57:30.729Z,3.17
2017-08-14T07:59:58.451Z,3.30
2017-08-14T08:02:26.209Z,3.20
2017-08-14T08:04:54.052Z,2.47
2017-08-14T08:07:21.889Z,2.53
2017-08-14T08:09:49.670Z,3.80
2017-08-14T08:12:17.382Z,3.00
2017-08-14T08:14:45.158Z,3.63
2017-08-14T08:17:12.881Z,2.80
2017-08-14T08:19:41.384Z,4.10
2017-08-14T08:22:09.188Z,3.33
2017-08-14T08:24:36.906Z,3.63
2017-08-14T08:27:05.897Z,3.00
2017-08-14T08:29:33.680Z,3.90
2017-08-14T08:32:01.418Z,2.73
2017-08-14T08:34:29.257Z,2.60
2017-08-14T08:36:57.035Z,3.30
2017-08-14T08:39:24.803Z,2.70
2017-08-14T08:41:52.559Z,3.10
2017-08-14T08:44:20.275Z,3.13
2017-08-14T08:46:48.174Z,3.10
2017-08-14T08:49:16.018Z,2.80
2017-08-14T08:51:43.768Z,2.90
2017-08-14T08:54:11.577Z,3.00
2017-08-14T08:56:39.314Z,2.57
2017-08-14T08:59:07.099Z,2.33
2017-08-14T09:01:34.856Z,2.07
2017-08-14T09:04:02.574Z,2.10
2017-08-14T09:06:30.344Z,2.53
2017-08-14T09:08:58.061Z,2.37
2017-08-14T09:11:25.901Z,2.17
2017-08-14T09:13:54.093Z,2.40
2017-08-14T09:16:21.998Z,1.83
2017-08-14T09:18:49.741Z,2.17
2017-08-14T09:21:17.491Z,2.17
2017-08-14T09:23:45.227Z,2.40
2017-08-14T09:26:13.058Z,3.07
2017-08-14T09:28:41.386Z,2.13
2017-08-14T09:31:09.170Z,2.30
2017-08-14T09:33:36.956Z,2.50
2017-08-14T09:36:04.694Z,2.57
2017-08-14T09:38:32.569Z,2.10
2017-08-14T09:41:00.937Z,2.50
2017-08-14T09:43:28.699Z,1.77
2017-08-14T09:45:56.407Z,2.67
2017-08-14T09:48:24.154Z,2.10
2017-08-14T09:50:51.940Z,1.40
2017-08-14T09:53:19.663Z,2.07
2017-08-14T09:55:47.389Z,2.00
2017-08-14T09:58:15.087Z,1.83
2017-08-14T10:00:46.514Z,1.50
2017-08-14T10:03:15.052Z,2.37
2017-08-14T10:05:42.830Z,1.93
2017-08-14T10:08:10.548Z,2.27
2017-08-14T10:10:38.359Z,1.77
2017-08-14T10:13:06.077Z,1.60
2017-08-14T10:15:33.838Z,2.73
2017-08-14T10:18:01.652Z,1.43
2017-08-14T10:20:29.342Z,1.80
2017-08-14T10:22:57.046Z,1.60
2017-08-14T10:25:24.837Z,1.60
2017-08-14T10:27:52.577Z,1.30
2017-08-14T10:30:20.337Z,1.37
2017-08-14T10:32:48.053Z,1.60
2017-08-14T10:35:15.852Z,1.30
2017-08-14T10:37:44.328Z,1.20
2017-08-14T10:40:12.012Z,1.20
2017-08-14T10:42:40.122Z,1.47
2017-08-14T10:45:07.889Z,1.80
2017-08-14T10:47:35.661Z,1.20
2017-08-14T10:50:03.388Z,1.20
2017-08-14T10:52:31.193Z,0.80
2017-08-14T10:54:58.919Z,1.03
2017-08-14T10:57:26.699Z,1.30
2017-08-14T10:59:54.503Z,1.10
2017-08-14T11:02:22.235Z,1.30
2017-08-14T11:04:50.024Z,1.20
2017-08-14T11:07:17.789Z,1.60
2017-08-14T11:09:46.202Z,1.40
2017-08-14T11:12:14.004Z,1.40
2017-08-14T11:14:41.847Z,1.20
2017-08-14T11:17:09.559Z,0.83
2017-08-14T11:19:37.315Z,1.17
2017-08-14T11:22:05.096Z,1.50
2017-08-14T11:24:33.019Z,1.10
2017-08-14T11:27:00.735Z,1.10
2017-08-14T11:29:28.541Z,1.33
2017-08-14T11:31:56.269Z,1.47
2017-08-14T11:34:24.074Z,1.30
2017-08-14T11:36:51.776Z,1.40
2017-08-14T11:39:19.491Z,0.80
2017-08-14T11:41:47.270Z,1.10
2017-08-14T11:44:15.046Z,1.20
2017-08-14T11:46:42.771Z,1.17
2017-08-14T11:49:10.550Z,0.70
2017-08-14T11:51:38.262Z,0.90
2017-08-14T11:54:05.976Z,0.97
2017-08-14T11:56:33.722Z,1.03
2017-08-14T11:59:01.463Z,1.03
2017-08-14T12:01:29.295Z,0.60
2017-08-14T12:03:56.997Z,1.20
2017-08-14T12:06:24.754Z,0.90
2017-08-14T12:08:52.515Z,0.80
2017-08-14T12:11:20.275Z,0.60
2017-08-14T12:13:48.105Z,1.00
2017-08-14T12:16:15.822Z,0.63
2017-08-14T12:18:43.575Z,0.90
2017-08-14T12:21:11.282Z,1.13
2017-08-14T12:23:38.986Z,0.50
2017-08-14T12:26:06.793Z,0.73
2017-08-14T12:28:34.501Z,0.50
2017-08-14T12:31:02.272Z,1.10
2017-08-14T12:33:29.984Z,0.80
2017-08-14T12:35:57.783Z,0.70
2017-08-14T12:38:25.498Z,0.90
2017-08-14T12:40:53.220Z,0.87
2017-08-14T12:43:21.002Z,1.13
2017-08-14T12:45:48.701Z,1.20
2017-08-14T12:48:16.486Z,0.70
2017-08-14T12:50:44.213Z,0.73
2017-08-14T12:53:12.033Z,1.00
2017-08-14T12:55:39.735Z,1.20
2017-08-14T12:58:07.523Z,1.10
2017-08-14T13:00:35.284Z,1.00
2017-08-14T13:03:03.020Z,0.97
2017-08-14T13:05:30.795Z,0.70
2017-08-14T13:07:58.515Z,0.93
2017-08-14T13:10:26.281Z,1.13
2017-08-14T13:12:54.883Z,0.83
2017-08-14T13:15:22.603Z,1.20
2017-08-14T13:17:50.342Z,0.87
2017-08-14T13:20:18.105Z,0.93
2017-08-14T13:22:45.862Z,1.13
2017-08-14T13:25:13.599Z,1.80
2017-08-14T13:27:42.263Z,1.07
2017-08-14T13:30:10.050Z,1.03
2017-08-14T13:32:37.869Z,0.80
2017-08-14T13:35:05.610Z,0.63
2017-08-14T13:37:33.413Z,0.80
2017-08-14T13:40:01.159Z,1.17
2017-08-14T13:42:28.922Z,0.63
2017-08-14T13:44:56.765Z,1.00
2017-08-14T13:47:24.527Z,0.70
2017-08-14T13:49:52.342Z,0.73
2017-08-14T13:52:20.029Z,0.83
2017-08-14T13:54:48.344Z,0.90
2017-08-14T13:57:16.131Z,0.93
2017-08-14T13:59:43.915Z,0.70
2017-08-14T14:02:11.611Z,0.90
2017-08-14T14:04:39.346Z,0.83
2017-08-14T14:07:07.214Z,1.40
2017-08-14T14:09:35.460Z,0.73
2017-08-14T14:12:03.169Z,0.90
2017-08-14T14:14:30.890Z,1.10
2017-08-14T14:16:58.681Z,1.07
2017-08-14T14:19:26.569Z,1.10
2017-08-14T14:21:54.269Z,1.10
2017-08-14T14:24:22.005Z,1.30
2017-08-14T14:26:49.742Z,1.57
2017-08-14T14:29:17.425Z,1.03
2017-08-14T14:31:45.245Z,0.90
2017-08-14T14:34:12.944Z,1.03
2017-08-14T14:36:40.875Z,0.97
2017-08-14T14:39:08.687Z,1.17
2017-08-14T14:41:36.404Z,0.80
2017-08-14T14:44:05.169Z,1.07
2017-08-14T14:46:32.929Z,1.20
2017-08-14T14:49:00.660Z,1.20
2017-08-14T14:51:28.352Z,1.10
2017-08-14T14:53:56.103Z,1.03
2017-08-14T14:56:23.842Z,1.13
2017-08-14T14:58:51.634Z,1.10
2017-08-14T15:01:19.407Z,1.20
2017-08-14T15:03:47.144Z,1.03
2017-08-14T15:06:14.900Z,0.87
2017-08-14T15:08:43.553Z,0.80
2017-08-14T15:11:12.465Z,0.90
2017-08-14T15:13:40.164Z,1.00
2017-08-14T15:16:07.929Z,0.90
2017-08-14T15:18:35.648Z,1.07
2017-08-14T15:21:03.354Z,0.90
2017-08-14T15:23:31.077Z,0.73
2017-08-14T15:25:58.965Z,0.97
2017-08-14T15:28:26.702Z,1.43
2017-08-14T15:30:54.415Z,0.90
2017-08-14T15:33:22.238Z,1.37
2017-08-14T15:35:49.935Z,1.73
2017-08-14T15:38:17.726Z,1.10
2017-08-14T15:40:45.449Z,1.33
2017-08-14T15:43:13.221Z,1.00
2017-08-14T15:45:40.927Z,1.23
2017-08-14T15:48:08.667Z,1.10
2017-08-14T15:50:36.385Z,0.83
2017-08-14T15:53:04.170Z,1.30
2017-08-14T15:55:31.882Z,1.00
2017-08-14T15:57:59.586Z,1.20
2017-08-14T16:00:27.359Z,0.93
2017-08-14T16:02:55.111Z,1.40
2017-08-14T16:05:22.888Z,0.97
2017-08-14T16:07:50.697Z,1.20
2017-08-14T16:10:18.491Z,1.50
2017-08-14T16:12:46.189Z,1.00
2017-08-14T16:15:13.948Z,1.10
2017-08-14T16:17:42.166Z,1.33
2017-08-14T16:20:09.882Z,1.30
2017-08-14T16:22:37.858Z,1.20
2017-08-14T16:25:05.608Z,1.17
2017-08-14T16:27:33.300Z,1.30
2017-08-14T16:30:01.209Z,2.20
2017-08-14T16:32:28.959Z,1.87
2017-08-14T16:34:56.681Z,1.77
2017-08-14T16:37:24.440Z,1.43
2017-08-14T16:39:52.138Z,1.40
2017-08-14T16:42:19.851Z,1.10
2017-08-14T16:44:47.598Z,1.20
2017-08-14T16:47:15.318Z,1.77
2017-08-14T16:49:43.123Z,1.80
2017-08-14T16:52:10.842Z,1.20
2017-08-14T16:54:38.569Z,1.70
2017-08-14T16:57:06.325Z,1.00
2017-08-14T16:59:34.089Z,1.37
2017-08-14T17:02:01.798Z,1.50
2017-08-14T17:04:29.496Z,1.23
2017-08-14T17:06:58.193Z,1.50
2017-08-14T17:09:25.970Z,1.57
2017-08-14T17:11:53.699Z,1.20
2017-08-14T17:14:21.442Z,1.03
2017-08-14T17:16:49.256Z,1.23
2017-08-14T17:19:16.958Z,1.07
2017-08-14T17:21:44.723Z,1.57
2017-08-14T17:24:12.488Z,1.33
2017-08-14T17:26:40.346Z,1.40
2017-08-14T17:29:08.065Z,1.40
2017-08-14T17:31:35.849Z,1.00
2017-08-14T17:34:03.579Z,1.30
2017-08-14T17:36:31.287Z,1.13
2017-08-14T17:38:59.085Z,1.67
2017-08-14T17:41:26.947Z,1.13
2017-08-14T17:43:54.686Z,1.50
2017-08-14T17:46:22.524Z,1.47
2017-08-14T17:48:50.213Z,1.37
2017-08-14T17:51:19.044Z,1.20
2017-08-14T17:53:46.762Z,1.57
2017-08-14T17:56:14.584Z,1.60
2017-08-14T17:58:42.337Z,1.57
2017-08-14T18:01:10.081Z,1.60
2017-08-14T18:03:38.488Z,1.40
2017-08-14T18:06:06.324Z,1.00
2017-08-14T18:08:34.040Z,1.57
2017-08-14T18:11:01.866Z,1.70
2017-08-14T18:13:29.664Z,1.77
2017-08-14T18:15:57.367Z,1.50
2017-08-14T18:18:25.149Z,1.90
2017-08-14T18:20:52.868Z,1.80
2017-08-14T18:23:20.692Z,2.27
2017-08-14T18:25:48.473Z,1.80
2017-08-14T18:28:16.200Z,1.87
2017-08-14T18:30:43.988Z,1.73
2017-08-14T18:33:11.811Z,1.50
2017-08-14T18:35:39.595Z,1.60
2017-08-14T18:38:07.347Z,1.43
2017-08-14T18:40:35.099Z,1.67
2017-08-14T18:43:02.853Z,1.80
2017-08-14T18:45:30.573Z,1.70
2017-08-14T18:47:58.322Z,1.27
2017-08-14T18:50:26.119Z,1.50
2017-08-14T18:52:53.905Z,1.27
2017-08-14T18:55:21.707Z,1.53
2017-08-14T18:57:49.648Z,1.60
2017-08-14T19:00:18.201Z,1.30
2017-08-14T19:02:46.648Z,1.27
2017-08-14T19:05:14.378Z,1.33
2017-08-14T19:07:42.943Z,1.93
2017-08-14T19:10:10.049Z,1.50
2017-08-14T19:12:37.802Z,1.80
2017-08-14T19:15:05.591Z,1.90
2017-08-14T19:17:33.344Z,1.37
2017-08-14T19:20:01.110Z,1.80
2017-08-14T19:22:28.905Z,1.27
2017-08-14T19:24:56.617Z,1.20
2017-08-14T19:27:24.463Z,2.40
2017-08-14T19:29:52.216Z,1.60
2017-08-14T19:32:20.006Z,1.80
2017-08-14T19:34:47.847Z,2.40
2017-08-14T19:37:15.577Z,1.60
2017-08-14T19:39:43.345Z,1.57
2017-08-14T19:42:12.220Z,1.77
2017-08-14T19:44:40.048Z,1.90
2017-08-14T19:47:07.814Z,1.87
2017-08-14T19:49:35.705Z,1.60
2017-08-14T19:52:03.524Z,1.60
2017-08-14T19:54:32.287Z,1.33
2017-08-14T19:57:00.119Z,2.00
2017-08-14T19:59:27.926Z,1.73
2017-08-14T20:01:55.648Z,2.00
2017-08-14T20:04:23.477Z,1.70
2017-08-14T20:06:51.328Z,1.80
2017-08-14T20:09:19.036Z,1.83
2017-08-14T20:11:46.713Z,2.10
2017-08-14T20:14:14.493Z,1.70
2017-08-14T20:16:42.209Z,1.80
2017-08-14T20:19:10.057Z,1.80
2017-08-14T20:21:37.848Z,1.53
2017-08-14T20:24:05.688Z,2.00
2017-08-14T20:26:33.477Z,1.70
2017-08-14T20:29:01.194Z,1.63
2017-08-14T20:31:29.166Z,1.67
2017-08-14T20:33:56.879Z,2.30
2017-08-14T20:36:24.660Z,1.90
2017-08-14T20:38:52.478Z,2.13
2017-08-14T20:41:20.230Z,1.60
2017-08-14T20:43:48.039Z,1.70
2017-08-14T20:46:15.820Z,1.60
2017-08-14T20:48:43.652Z,1.70
2017-08-14T20:51:11.423Z,2.50
2017-08-14T20:53:39.134Z,1.60
2017-08-14T20:56:07.043Z,2.23
2017-08-14T20:58:34.795Z,2.17
2017-08-14T21:01:02.487Z,1.53
2017-08-14T21:03:30.275Z,2.20
2017-08-14T21:05:58.044Z,1.90
2017-08-14T21:08:25.752Z,1.53
2017-08-14T21:10:53.519Z,2.53
2017-08-14T21:13:21.297Z,2.00
2017-08-14T21:15:49.100Z,1.77
2017-08-14T21:18:16.846Z,2.37
2017-08-14T21:20:44.578Z,1.67
2017-08-14T21:23:12.312Z,2.47
2017-08-14T21:25:40.116Z,2.00
2017-08-14T21:28:08.165Z,2.20
2017-08-14T21:30:35.954Z,1.93
2017-08-14T21:33:03.731Z,2.20
2017-08-14T21:35:31.464Z,1.90
2017-08-14T21:37:59.772Z,2.43
2017-08-14T21:40:27.499Z,2.10
2017-08-14T21:42:55.276Z,2.10
2017-08-14T21:45:22.986Z,2.40
2017-08-14T21:47:50.790Z,2.43
2017-08-14T21:50:18.512Z,1.97
2017-08-14T21:52:46.296Z,2.00
2017-08-14T21:55:14.106Z,2.50
2017-08-14T21:57:41.904Z,1.60
2017-08-14T22:00:09.762Z,1.93
2017-08-14T22:02:37.648Z,1.83
2017-08-14T22:05:05.442Z,1.93
2017-08-14T22:07:33.238Z,3.00
2017-08-14T22:10:00.965Z,1.60
2017-08-14T22:12:28.760Z,1.93
2017-08-14T22:14:56.550Z,1.93
2017-08-14T22:17:24.343Z,1.77
2017-08-14T22:19:52.212Z,2.17
2017-08-14T22:22:19.969Z,1.90
2017-08-14T22:24:48.847Z,2.07
2017-08-14T22:27:16.583Z,2.10
2017-08-14T22:29:44.341Z,2.00
2017-08-14T22:32:12.035Z,1.67
2017-08-14T22:34:39.782Z,2.03
2017-08-14T22:37:07.588Z,2.60
2017-08-14T22:39:35.349Z,2.17
2017-08-14T22:42:03.234Z,1.53
2017-08-14T22:44:30.945Z,1.97
2017-08-14T22:46:58.713Z,2.07
2017-08-14T22:49:26.558Z,2.00
2017-08-14T22:51:54.300Z,2.00
2017-08-14T22:54:22.202Z,2.33
2017-08-14T22:56:50.069Z,2.27
2017-08-14T22:59:17.953Z,1.90
2017-08-14T23:01:45.653Z,1.93
2017-08-14T23:04:13.356Z,1.50
2017-08-14T23:06:41.129Z,1.60
2017-08-14T23:09:08.851Z,2.80
2017-08-14T23:11:36.618Z,2.33
2017-08-14T23:14:04.328Z,2.00
2017-08-14T23:16:32.057Z,2.30
2017-08-14T23:18:59.840Z,2.27
2017-08-14T23:21:27.607Z,2.07
2017-08-14T23:23:55.370Z,2.20
2017-08-14T23:26:23.110Z,2.77
2017-08-14T23:28:50.887Z,2.97
2017-08-14T23:31:18.636Z,2.03
2017-08-14T23:33:46.369Z,2.03
2017-08-14T23:36:14.053Z,2.20
2017-08-14T23:38:41.926Z,1.73
2017-08-14T23:41:09.654Z,3.60
2017-08-14T23:43:37.454Z,1.80
2017-08-14T23:46:05.172Z,2.57
2017-08-14T23:48:32.901Z,2.93
2017-08-14T23:51:00.648Z,2.27
2017-08-14T23:53:28.423Z,2.30
2017-08-14T23:55:56.144Z,2.57
2017-08-14T23:58:23.841Z,3.00
